sensor_id;sensor_type;location;lat;lon;timestamp;temperature;humidity
16814;DHT22;8524;57.650;11.926;2022-10-16T00:02:22;13.00;99.90
16814;DHT22;8524;57.650;11.926;2022-10-16T00:04:49;12.90;99.90
16814;DHT22;8524;57.650;11.926;2022-10-16T00:07:16;12.90;99.90
16814;DHT22;8524;57.650;11.926;2022-10-16T00:09:43;12.80;99.90
16814;DHT22;8524;57.650;11.926;2022-10-16T00:12:10;12.80;99.90
16814;DHT22;8524;57.650;11.926;2022-10-16T00:14:38;12.80;99.90
16814;DHT22;8524;57.650;11.926;2022-10-16T00:17:07;12.80;99.90
16814;DHT22;8524;57.650;11.926;2022-10-16T00:19:34;12.70;99.90
16814;DHT22;8524;57.650;11.926;2022-10-16T00:22:01;12.70;99.90
16814;DHT22;8524;57.650;11.926;2022-10-16T00:24:28;12.70;99.90
16814;DHT22;8524;57.650;11.926;2022-10-16T00:26:55;12.70;99.90
16814;DHT22;8524;57.650;11.926;2022-10-16T00:29:22;12.70;99.90
16814;DHT22;8524;57.650;11.926;2022-10-16T00:31:50;12.70;99.90
16814;DHT22;8524;57.650;11.926;2022-10-16T00:34:17;12.70;99.90
16814;DHT22;8524;57.650;11.926;2022-10-16T00:36:44;12.70;99.90
16814;DHT22;8524;57.650;11.926;2022-10-16T00:39:11;12.70;99.90
16814;DHT22;8524;57.650;11.926;2022-10-16T00:41:37;12.80;99.90
16814;DHT22;8524;57.650;11.926;2022-10-16T00:47:08;12.80;99.90
16814;DHT22;8524;57.650;11.926;2022-10-16T00:49:35;12.70;99.90
16814;DHT22;8524;57.650;11.926;2022-10-16T00:52:03;12.70;99.90
16814;DHT22;8524;57.650;11.926;2022-10-16T00:54:31;12.70;99.90
16814;DHT22;8524;57.650;11.926;2022-10-16T00:57:01;12.60;99.90
16814;DHT22;8524;57.650;11.926;2022-10-16T00:59:30;12.40;99.90
16814;DHT22;8524;57.650;11.926;2022-10-16T01:01:57;12.40;99.90
16814;DHT22;8524;57.650;11.926;2022-10-16T01:04:26;12.30;99.90
16814;DHT22;8524;57.650;11.926;2022-10-16T01:07:01;12.30;99.90
16814;DHT22;8524;57.650;11.926;2022-10-16T01:09:35;12.30;99.90
16814;DHT22;8524;57.650;11.926;2022-10-16T01:12:09;12.20;99.90
16814;DHT22;8524;57.650;11.926;2022-10-16T01:14:42;12.20;99.90
16814;DHT22;8524;57.650;11.926;2022-10-16T01:17:12;12.10;99.90
16814;DHT22;8524;57.650;11.926;2022-10-16T01:20:03;12.00;99.90
16814;DHT22;8524;57.650;11.926;2022-10-16T01:22:39;12.00;99.90
16814;DHT22;8524;57.650;11.926;2022-10-16T01:25:12;12.00;99.90
16814;DHT22;8524;57.650;11.926;2022-10-16T01:27:46;12.00;99.90
16814;DHT22;8524;57.650;11.926;2022-10-16T01:30:16;11.90;99.90
16814;DHT22;8524;57.650;11.926;2022-10-16T01:32:49;11.80;99.90
16814;DHT22;8524;57.650;11.926;2022-10-16T01:35:20;11.80;99.90
16814;DHT22;8524;57.650;11.926;2022-10-16T01:37:52;11.70;99.90
16814;DHT22;8524;57.650;11.926;2022-10-16T01:40:21;11.80;99.90
16814;DHT22;8524;57.650;11.926;2022-10-16T01:42:53;11.70;99.90
16814;DHT22;8524;57.650;11.926;2022-10-16T01:45:22;11.60;99.90
16814;DHT22;8524;57.650;11.926;2022-10-16T01:47:49;11.60;99.90
16814;DHT22;8524;57.650;11.926;2022-10-16T01:50:19;11.50;99.90
16814;DHT22;8524;57.650;11.926;2022-10-16T01:52:49;11.50;99.90
16814;DHT22;8524;57.650;11.926;2022-10-16T01:55:21;11.50;99.90
16814;DHT22;8524;57.650;11.926;2022-10-16T01:57:51;11.40;99.90
16814;DHT22;8524;57.650;11.926;2022-10-16T02:00:21;11.40;99.90
16814;DHT22;8524;57.650;11.926;2022-10-16T02:02:52;11.30;99.90
16814;DHT22;8524;57.650;11.926;2022-10-16T02:05:24;11.40;99.90
16814;DHT22;8524;57.650;11.926;2022-10-16T02:07:52;11.30;99.90
16814;DHT22;8524;57.650;11.926;2022-10-16T02:10:20;11.30;99.90
16814;DHT22;8524;57.650;11.926;2022-10-16T02:12:53;11.30;99.90
16814;DHT22;8524;57.650;11.926;2022-10-16T02:15:20;11.30;99.90
16814;DHT22;8524;57.650;11.926;2022-10-16T02:17:47;11.40;99.90
16814;DHT22;8524;57.650;11.926;2022-10-16T02:20:14;11.50;99.90
16814;DHT22;8524;57.650;11.926;2022-10-16T02:22:45;11.50;99.90
16814;DHT22;8524;57.650;11.926;2022-10-16T02:25:18;11.50;99.90
16814;DHT22;8524;57.650;11.926;2022-10-16T02:27:52;11.60;99.90
16814;DHT22;8524;57.650;11.926;2022-10-16T02:30:30;11.70;99.90
16814;DHT22;8524;57.650;11.926;2022-10-16T02:33:00;11.60;99.90
16814;DHT22;8524;57.650;11.926;2022-10-16T02:35:30;11.60;99.90
16814;DHT22;8524;57.650;11.926;2022-10-16T02:37:58;11.60;99.90
16814;DHT22;8524;57.650;11.926;2022-10-16T02:40:26;11.70;99.90
16814;DHT22;8524;57.650;11.926;2022-10-16T02:42:55;11.70;99.90
16814;DHT22;8524;57.650;11.926;2022-10-16T02:45:22;11.70;99.90
16814;DHT22;8524;57.650;11.926;2022-10-16T02:47:50;11.70;99.90
16814;DHT22;8524;57.650;11.926;2022-10-16T02:50:17;11.70;99.90
16814;DHT22;8524;57.650;11.926;2022-10-16T02:52:44;11.70;99.90
16814;DHT22;8524;57.650;11.926;2022-10-16T02:55:11;11.70;99.90
16814;DHT22;8524;57.650;11.926;2022-10-16T02:57:37;11.70;99.90
16814;DHT22;8524;57.650;11.926;2022-10-16T03:00:09;11.70;99.90
16814;DHT22;8524;57.650;11.926;2022-10-16T03:02:36;11.80;99.90
16814;DHT22;8524;57.650;11.926;2022-10-16T03:05:03;11.80;99.90
16814;DHT22;8524;57.650;11.926;2022-10-16T03:07:30;11.80;99.90
16814;DHT22;8524;57.650;11.926;2022-10-16T03:09:57;11.80;99.90
16814;DHT22;8524;57.650;11.926;2022-10-16T03:12:25;11.80;99.90
16814;DHT22;8524;57.650;11.926;2022-10-16T03:14:52;11.80;99.90
16814;DHT22;8524;57.650;11.926;2022-10-16T03:17:21;11.70;99.90
16814;DHT22;8524;57.650;11.926;2022-10-16T03:19:48;11.70;99.90
16814;DHT22;8524;57.650;11.926;2022-10-16T03:22:15;11.70;99.90
16814;DHT22;8524;57.650;11.926;2022-10-16T03:24:41;11.70;99.90
16814;DHT22;8524;57.650;11.926;2022-10-16T03:27:08;11.70;99.90
16814;DHT22;8524;57.650;11.926;2022-10-16T03:29:35;11.70;99.90
16814;DHT22;8524;57.650;11.926;2022-10-16T03:32:02;11.70;99.90
16814;DHT22;8524;57.650;11.926;2022-10-16T03:34:30;11.70;99.90
16814;DHT22;8524;57.650;11.926;2022-10-16T03:36:57;11.70;99.90
16814;DHT22;8524;57.650;11.926;2022-10-16T03:39:24;11.60;99.90
16814;DHT22;8524;57.650;11.926;2022-10-16T03:41:51;11.60;99.90
16814;DHT22;8524;57.650;11.926;2022-10-16T03:44:18;11.50;99.90
16814;DHT22;8524;57.650;11.926;2022-10-16T03:46:45;11.40;99.90
16814;DHT22;8524;57.650;11.926;2022-10-16T03:49:12;11.30;99.90
16814;DHT22;8524;57.650;11.926;2022-10-16T03:51:40;11.20;99.90
16814;DHT22;8524;57.650;11.926;2022-10-16T03:54:07;11.10;99.90
16814;DHT22;8524;57.650;11.926;2022-10-16T03:56:34;11.00;99.90
16814;DHT22;8524;57.650;11.926;2022-10-16T03:59:01;10.90;99.90
16814;DHT22;8524;57.650;11.926;2022-10-16T04:01:27;10.80;99.90
16814;DHT22;8524;57.650;11.926;2022-10-16T04:03:54;10.70;99.90
16814;DHT22;8524;57.650;11.926;2022-10-16T04:06:21;10.60;99.90
16814;DHT22;8524;57.650;11.926;2022-10-16T04:08:49;10.50;99.90
16814;DHT22;8524;57.650;11.926;2022-10-16T04:11:16;10.40;99.90
16814;DHT22;8524;57.650;11.926;2022-10-16T04:13:43;10.30;99.90
16814;DHT22;8524;57.650;11.926;2022-10-16T04:16:10;10.20;99.90
16814;DHT22;8524;57.650;11.926;2022-10-16T04:18:37;10.10;99.90
16814;DHT22;8524;57.650;11.926;2022-10-16T04:21:05;10.00;99.90
16814;DHT22;8524;57.650;11.926;2022-10-16T04:23:32;10.00;99.90
16814;DHT22;8524;57.650;11.926;2022-10-16T04:26:01;9.90;99.90
16814;DHT22;8524;57.650;11.926;2022-10-16T04:28:28;9.80;99.90
16814;DHT22;8524;57.650;11.926;2022-10-16T04:30:55;9.80;99.90
16814;DHT22;8524;57.650;11.926;2022-10-16T04:33:22;9.70;99.90
16814;DHT22;8524;57.650;11.926;2022-10-16T04:35:48;9.70;99.90
16814;DHT22;8524;57.650;11.926;2022-10-16T04:38:22;9.70;99.90
16814;DHT22;8524;57.650;11.926;2022-10-16T04:40:49;9.70;99.90
16814;DHT22;8524;57.650;11.926;2022-10-16T04:43:17;9.60;99.90
16814;DHT22;8524;57.650;11.926;2022-10-16T04:45:44;9.60;99.90
16814;DHT22;8524;57.650;11.926;2022-10-16T04:48:11;9.70;99.90
16814;DHT22;8524;57.650;11.926;2022-10-16T04:50:38;9.70;99.90
16814;DHT22;8524;57.650;11.926;2022-10-16T04:53:05;9.70;99.90
16814;DHT22;8524;57.650;11.926;2022-10-16T04:55:32;9.70;99.90
16814;DHT22;8524;57.650;11.926;2022-10-16T04:57:59;9.60;99.90
16814;DHT22;8524;57.650;11.926;2022-10-16T05:00:27;9.60;99.90
16814;DHT22;8524;57.650;11.926;2022-10-16T05:02:54;9.50;99.90
16814;DHT22;8524;57.650;11.926;2022-10-16T05:05:22;9.50;99.90
16814;DHT22;8524;57.650;11.926;2022-10-16T05:07:49;9.50;99.90
16814;DHT22;8524;57.650;11.926;2022-10-16T05:10:16;9.50;99.90
16814;DHT22;8524;57.650;11.926;2022-10-16T05:12:43;9.50;99.90
16814;DHT22;8524;57.650;11.926;2022-10-16T05:15:10;9.50;99.90
16814;DHT22;8524;57.650;11.926;2022-10-16T05:17:38;9.50;99.90
16814;DHT22;8524;57.650;11.926;2022-10-16T05:20:06;9.50;99.90
16814;DHT22;8524;57.650;11.926;2022-10-16T05:22:33;9.50;99.90
16814;DHT22;8524;57.650;11.926;2022-10-16T05:25:00;9.70;99.90
16814;DHT22;8524;57.650;11.926;2022-10-16T05:27:27;9.70;99.90
16814;DHT22;8524;57.650;11.926;2022-10-16T05:29:54;9.80;99.90
16814;DHT22;8524;57.650;11.926;2022-10-16T05:32:21;10.00;99.90
16814;DHT22;8524;57.650;11.926;2022-10-16T05:34:50;10.00;99.90
16814;DHT22;8524;57.650;11.926;2022-10-16T05:37:17;10.20;99.90
16814;DHT22;8524;57.650;11.926;2022-10-16T05:39:44;10.50;99.90
16814;DHT22;8524;57.650;11.926;2022-10-16T05:42:11;10.80;99.90
16814;DHT22;8524;57.650;11.926;2022-10-16T05:44:38;11.00;99.90
16814;DHT22;8524;57.650;11.926;2022-10-16T05:47:05;11.10;99.90
16814;DHT22;8524;57.650;11.926;2022-10-16T05:49:31;11.20;99.90
16814;DHT22;8524;57.650;11.926;2022-10-16T05:52:00;11.30;99.90
16814;DHT22;8524;57.650;11.926;2022-10-16T05:54:26;11.40;99.90
16814;DHT22;8524;57.650;11.926;2022-10-16T05:56:53;11.50;99.90
16814;DHT22;8524;57.650;11.926;2022-10-16T05:59:20;11.60;99.90
16814;DHT22;8524;57.650;11.926;2022-10-16T06:01:47;11.60;99.90
16814;DHT22;8524;57.650;11.926;2022-10-16T06:04:14;11.70;99.90
16814;DHT22;8524;57.650;11.926;2022-10-16T06:06:41;11.80;99.90
16814;DHT22;8524;57.650;11.926;2022-10-16T06:09:10;11.80;99.90
16814;DHT22;8524;57.650;11.926;2022-10-16T06:11:37;11.80;99.90
16814;DHT22;8524;57.650;11.926;2022-10-16T06:14:04;11.80;99.90
16814;DHT22;8524;57.650;11.926;2022-10-16T06:16:33;11.90;99.90
16814;DHT22;8524;57.650;11.926;2022-10-16T06:19:00;11.90;99.90
16814;DHT22;8524;57.650;11.926;2022-10-16T06:21:28;11.90;99.90
16814;DHT22;8524;57.650;11.926;2022-10-16T06:23:56;11.90;99.90
16814;DHT22;8524;57.650;11.926;2022-10-16T06:26:26;11.90;99.90
16814;DHT22;8524;57.650;11.926;2022-10-16T06:28:54;12.00;99.90
16814;DHT22;8524;57.650;11.926;2022-10-16T06:31:22;12.10;99.90
16814;DHT22;8524;57.650;11.926;2022-10-16T06:33:53;12.10;99.90
16814;DHT22;8524;57.650;11.926;2022-10-16T06:36:20;12.20;99.90
16814;DHT22;8524;57.650;11.926;2022-10-16T06:38:47;12.30;99.90
16814;DHT22;8524;57.650;11.926;2022-10-16T06:41:17;12.30;99.90
16814;DHT22;8524;57.650;11.926;2022-10-16T06:43:46;12.40;99.90
16814;DHT22;8524;57.650;11.926;2022-10-16T06:46:14;12.40;99.90
16814;DHT22;8524;57.650;11.926;2022-10-16T06:48:42;12.50;99.90
16814;DHT22;8524;57.650;11.926;2022-10-16T06:51:10;12.60;99.90
16814;DHT22;8524;57.650;11.926;2022-10-16T06:53:39;12.60;99.90
16814;DHT22;8524;57.650;11.926;2022-10-16T06:56:10;12.70;99.90
16814;DHT22;8524;57.650;11.926;2022-10-16T06:58:38;12.80;99.90
16814;DHT22;8524;57.650;11.926;2022-10-16T07:01:06;12.80;99.90
16814;DHT22;8524;57.650;11.926;2022-10-16T07:03:36;12.90;99.90
16814;DHT22;8524;57.650;11.926;2022-10-16T07:06:04;13.00;99.90
16814;DHT22;8524;57.650;11.926;2022-10-16T07:08:31;13.00;99.90
16814;DHT22;8524;57.650;11.926;2022-10-16T07:11:00;12.90;99.90
16814;DHT22;8524;57.650;11.926;2022-10-16T07:13:27;13.00;99.90
16814;DHT22;8524;57.650;11.926;2022-10-16T07:15:54;13.00;99.90
16814;DHT22;8524;57.650;11.926;2022-10-16T07:18:22;13.00;99.90
16814;DHT22;8524;57.650;11.926;2022-10-16T07:20:52;13.00;99.90
16814;DHT22;8524;57.650;11.926;2022-10-16T07:23:19;13.00;99.90
16814;DHT22;8524;57.650;11.926;2022-10-16T07:25:45;13.10;99.90
16814;DHT22;8524;57.650;11.926;2022-10-16T07:28:19;13.10;99.90
16814;DHT22;8524;57.650;11.926;2022-10-16T07:30:46;13.10;99.90
16814;DHT22;8524;57.650;11.926;2022-10-16T07:33:13;13.20;99.90
16814;DHT22;8524;57.650;11.926;2022-10-16T07:35:49;13.20;99.90
16814;DHT22;8524;57.650;11.926;2022-10-16T07:38:16;13.20;99.90
16814;DHT22;8524;57.650;11.926;2022-10-16T07:40:43;13.30;99.90
16814;DHT22;8524;57.650;11.926;2022-10-16T07:43:10;13.30;99.90
16814;DHT22;8524;57.650;11.926;2022-10-16T07:45:36;13.30;99.90
16814;DHT22;8524;57.650;11.926;2022-10-16T07:48:04;13.50;99.90
16814;DHT22;8524;57.650;11.926;2022-10-16T07:50:30;13.60;99.90
16814;DHT22;8524;57.650;11.926;2022-10-16T07:52:59;13.70;99.90
16814;DHT22;8524;57.650;11.926;2022-10-16T07:55:26;13.70;99.90
16814;DHT22;8524;57.650;11.926;2022-10-16T07:57:52;13.70;99.90
16814;DHT22;8524;57.650;11.926;2022-10-16T08:00:19;13.70;99.90
16814;DHT22;8524;57.650;11.926;2022-10-16T08:02:46;13.80;99.90
16814;DHT22;8524;57.650;11.926;2022-10-16T08:05:13;13.80;99.90
16814;DHT22;8524;57.650;11.926;2022-10-16T08:07:40;13.90;99.90
16814;DHT22;8524;57.650;11.926;2022-10-16T08:10:15;13.90;99.90
16814;DHT22;8524;57.650;11.926;2022-10-16T08:12:42;13.90;99.90
16814;DHT22;8524;57.650;11.926;2022-10-16T08:15:10;14.00;99.90
16814;DHT22;8524;57.650;11.926;2022-10-16T08:17:37;14.00;99.90
16814;DHT22;8524;57.650;11.926;2022-10-16T08:20:05;14.10;99.90
16814;DHT22;8524;57.650;11.926;2022-10-16T08:22:32;14.20;99.90
16814;DHT22;8524;57.650;11.926;2022-10-16T08:24:59;14.20;99.90
16814;DHT22;8524;57.650;11.926;2022-10-16T08:27:31;14.20;99.90
16814;DHT22;8524;57.650;11.926;2022-10-16T08:29:58;14.20;99.90
16814;DHT22;8524;57.650;11.926;2022-10-16T08:32:25;14.20;99.90
16814;DHT22;8524;57.650;11.926;2022-10-16T08:34:51;14.30;99.90
16814;DHT22;8524;57.650;11.926;2022-10-16T08:37:18;14.30;99.90
16814;DHT22;8524;57.650;11.926;2022-10-16T08:39:45;14.30;99.90
16814;DHT22;8524;57.650;11.926;2022-10-16T08:42:23;14.30;99.90
16814;DHT22;8524;57.650;11.926;2022-10-16T08:45:25;14.30;99.90
16814;DHT22;8524;57.650;11.926;2022-10-16T08:48:08;14.40;99.90
16814;DHT22;8524;57.650;11.926;2022-10-16T08:50:38;14.50;99.90
16814;DHT22;8524;57.650;11.926;2022-10-16T08:53:05;14.50;99.90
16814;DHT22;8524;57.650;11.926;2022-10-16T08:55:38;14.50;99.90
16814;DHT22;8524;57.650;11.926;2022-10-16T08:58:12;14.50;99.90
16814;DHT22;8524;57.650;11.926;2022-10-16T09:00:43;14.50;99.90
16814;DHT22;8524;57.650;11.926;2022-10-16T09:03:17;14.40;99.90
16814;DHT22;8524;57.650;11.926;2022-10-16T09:05:59;14.30;99.90
16814;DHT22;8524;57.650;11.926;2022-10-16T09:08:36;14.30;99.90
16814;DHT22;8524;57.650;11.926;2022-10-16T09:11:11;14.40;99.90
16814;DHT22;8524;57.650;11.926;2022-10-16T09:13:48;14.30;99.90
16814;DHT22;8524;57.650;11.926;2022-10-16T09:16:21;14.20;99.90
16814;DHT22;8524;57.650;11.926;2022-10-16T09:18:55;14.10;99.90
16814;DHT22;8524;57.650;11.926;2022-10-16T09:21:27;14.10;99.90
16814;DHT22;8524;57.650;11.926;2022-10-16T09:23:58;14.10;99.90
16814;DHT22;8524;57.650;11.926;2022-10-16T09:26:26;14.00;99.90
16814;DHT22;8524;57.650;11.926;2022-10-16T09:28:53;14.10;99.90
16814;DHT22;8524;57.650;11.926;2022-10-16T09:31:22;14.10;99.90
16814;DHT22;8524;57.650;11.926;2022-10-16T09:33:53;14.10;99.90
16814;DHT22;8524;57.650;11.926;2022-10-16T09:36:23;14.20;99.90
16814;DHT22;8524;57.650;11.926;2022-10-16T09:39:02;14.20;99.90
16814;DHT22;8524;57.650;11.926;2022-10-16T09:41:29;14.30;99.90
16814;DHT22;8524;57.650;11.926;2022-10-16T09:43:57;14.30;99.90
16814;DHT22;8524;57.650;11.926;2022-10-16T09:46:29;14.40;99.90
16814;DHT22;8524;57.650;11.926;2022-10-16T09:48:57;14.40;99.90
16814;DHT22;8524;57.650;11.926;2022-10-16T09:51:27;14.40;99.90
16814;DHT22;8524;57.650;11.926;2022-10-16T09:53:56;14.50;99.90
16814;DHT22;8524;57.650;11.926;2022-10-16T09:56:25;14.60;99.90
16814;DHT22;8524;57.650;11.926;2022-10-16T09:58:54;14.60;99.90
16814;DHT22;8524;57.650;11.926;2022-10-16T10:01:24;14.60;99.90
16814;DHT22;8524;57.650;11.926;2022-10-16T10:03:56;14.60;99.90
16814;DHT22;8524;57.650;11.926;2022-10-16T10:06:28;14.60;99.90
16814;DHT22;8524;57.650;11.926;2022-10-16T10:09:03;14.70;99.90
16814;DHT22;8524;57.650;11.926;2022-10-16T10:11:50;14.80;99.90
16814;DHT22;8524;57.650;11.926;2022-10-16T10:14:23;14.90;99.90
16814;DHT22;8524;57.650;11.926;2022-10-16T10:16:51;15.00;99.90
16814;DHT22;8524;57.650;11.926;2022-10-16T10:19:21;15.10;99.90
16814;DHT22;8524;57.650;11.926;2022-10-16T10:21:49;15.20;99.90
16814;DHT22;8524;57.650;11.926;2022-10-16T10:24:18;15.20;99.90
16814;DHT22;8524;57.650;11.926;2022-10-16T10:26:51;15.10;99.90
16814;DHT22;8524;57.650;11.926;2022-10-16T10:29:38;15.00;99.90
16814;DHT22;8524;57.650;11.926;2022-10-16T10:32:16;14.90;99.90
16814;DHT22;8524;57.650;11.926;2022-10-16T10:34:58;14.80;99.90
16814;DHT22;8524;57.650;11.926;2022-10-16T10:37:41;14.80;99.90
16814;DHT22;8524;57.650;11.926;2022-10-16T10:40:16;14.60;99.90
16814;DHT22;8524;57.650;11.926;2022-10-16T10:42:53;14.50;99.90
16814;DHT22;8524;57.650;11.926;2022-10-16T10:45:26;14.50;99.90
16814;DHT22;8524;57.650;11.926;2022-10-16T10:48:10;14.40;99.90
16814;DHT22;8524;57.650;11.926;2022-10-16T10:50:46;14.20;99.90
16814;DHT22;8524;57.650;11.926;2022-10-16T10:53:25;14.00;99.90
16814;DHT22;8524;57.650;11.926;2022-10-16T10:56:02;14.00;99.90
16814;DHT22;8524;57.650;11.926;2022-10-16T10:58:57;14.10;99.90
16814;DHT22;8524;57.650;11.926;2022-10-16T11:01:33;14.20;99.90
16814;DHT22;8524;57.650;11.926;2022-10-16T11:04:20;14.30;99.90
16814;DHT22;8524;57.650;11.926;2022-10-16T11:06:54;14.30;99.90
16814;DHT22;8524;57.650;11.926;2022-10-16T11:09:24;14.30;99.90
16814;DHT22;8524;57.650;11.926;2022-10-16T11:11:56;14.30;99.90
16814;DHT22;8524;57.650;11.926;2022-10-16T11:14:29;14.30;99.90
16814;DHT22;8524;57.650;11.926;2022-10-16T11:17:01;14.40;99.90
16814;DHT22;8524;57.650;11.926;2022-10-16T11:19:37;14.30;99.90
16814;DHT22;8524;57.650;11.926;2022-10-16T11:22:14;14.30;99.90
16814;DHT22;8524;57.650;11.926;2022-10-16T11:24:46;14.40;99.90
16814;DHT22;8524;57.650;11.926;2022-10-16T11:27:17;14.40;99.90
16814;DHT22;8524;57.650;11.926;2022-10-16T11:29:49;14.50;99.90
16814;DHT22;8524;57.650;11.926;2022-10-16T11:32:22;14.60;99.90
16814;DHT22;8524;57.650;11.926;2022-10-16T11:34:53;14.60;99.90
16814;DHT22;8524;57.650;11.926;2022-10-16T11:37:27;14.60;99.90
16814;DHT22;8524;57.650;11.926;2022-10-16T11:40:02;14.60;99.90
16814;DHT22;8524;57.650;11.926;2022-10-16T11:42:37;14.60;99.90
16814;DHT22;8524;57.650;11.926;2022-10-16T11:45:13;14.40;99.90
16814;DHT22;8524;57.650;11.926;2022-10-16T11:47:45;14.40;99.90
16814;DHT22;8524;57.650;11.926;2022-10-16T11:50:20;14.20;99.90
16814;DHT22;8524;57.650;11.926;2022-10-16T11:52:55;14.10;99.90
16814;DHT22;8524;57.650;11.926;2022-10-16T11:55:31;14.00;99.90
16814;DHT22;8524;57.650;11.926;2022-10-16T11:58:01;14.00;99.90
16814;DHT22;8524;57.650;11.926;2022-10-16T12:00:35;14.00;99.90
16814;DHT22;8524;57.650;11.926;2022-10-16T12:03:14;13.80;99.90
16814;DHT22;8524;57.650;11.926;2022-10-16T12:05:56;12.90;99.90
16814;DHT22;8524;57.650;11.926;2022-10-16T12:08:27;12.40;99.90
16814;DHT22;8524;57.650;11.926;2022-10-16T12:11:03;12.00;99.90
16814;DHT22;8524;57.650;11.926;2022-10-16T12:13:34;11.70;99.90
16814;DHT22;8524;57.650;11.926;2022-10-16T12:16:06;11.60;99.90
16814;DHT22;8524;57.650;11.926;2022-10-16T12:18:33;11.50;99.90
16814;DHT22;8524;57.650;11.926;2022-10-16T12:21:00;11.50;99.90
16814;DHT22;8524;57.650;11.926;2022-10-16T12:23:36;11.40;99.90
16814;DHT22;8524;57.650;11.926;2022-10-16T12:26:04;11.40;99.90
16814;DHT22;8524;57.650;11.926;2022-10-16T12:28:32;11.40;99.90
16814;DHT22;8524;57.650;11.926;2022-10-16T12:31:01;11.40;99.90
16814;DHT22;8524;57.650;11.926;2022-10-16T12:33:30;11.30;99.90
16814;DHT22;8524;57.650;11.926;2022-10-16T12:35:59;11.40;99.90
16814;DHT22;8524;57.650;11.926;2022-10-16T12:38:28;11.40;99.90
16814;DHT22;8524;57.650;11.926;2022-10-16T12:41:02;11.70;99.90
16814;DHT22;8524;57.650;11.926;2022-10-16T12:43:38;12.10;99.90
16814;DHT22;8524;57.650;11.926;2022-10-16T12:46:23;12.40;99.90
16814;DHT22;8524;57.650;11.926;2022-10-16T12:48:50;12.70;99.90
16814;DHT22;8524;57.650;11.926;2022-10-16T12:51:24;12.80;99.90
16814;DHT22;8524;57.650;11.926;2022-10-16T12:54:01;12.90;99.90
16814;DHT22;8524;57.650;11.926;2022-10-16T12:56:37;13.00;99.90
16814;DHT22;8524;57.650;11.926;2022-10-16T12:59:13;12.90;99.90
16814;DHT22;8524;57.650;11.926;2022-10-16T13:01:56;13.00;99.90
16814;DHT22;8524;57.650;11.926;2022-10-16T13:04:40;13.00;99.90
16814;DHT22;8524;57.650;11.926;2022-10-16T13:07:30;13.10;99.90
16814;DHT22;8524;57.650;11.926;2022-10-16T13:10:13;13.10;99.90
16814;DHT22;8524;57.650;11.926;2022-10-16T13:16:02;13.20;99.90
16814;DHT22;8524;57.650;11.926;2022-10-16T13:18:43;13.20;99.90
16814;DHT22;8524;57.650;11.926;2022-10-16T13:21:26;13.30;99.90
16814;DHT22;8524;57.650;11.926;2022-10-16T13:23:59;13.30;99.90
16814;DHT22;8524;57.650;11.926;2022-10-16T13:26:37;13.30;99.90
16814;DHT22;8524;57.650;11.926;2022-10-16T13:29:09;13.30;99.90
16814;DHT22;8524;57.650;11.926;2022-10-16T13:31:38;13.30;99.90
16814;DHT22;8524;57.650;11.926;2022-10-16T13:34:06;13.40;99.90
16814;DHT22;8524;57.650;11.926;2022-10-16T13:36:44;13.50;99.90
16814;DHT22;8524;57.650;11.926;2022-10-16T13:39:13;13.50;99.90
16814;DHT22;8524;57.650;11.926;2022-10-16T13:41:40;13.50;99.90
16814;DHT22;8524;57.650;11.926;2022-10-16T13:44:14;13.50;99.90
16814;DHT22;8524;57.650;11.926;2022-10-16T13:46:41;13.50;99.90
16814;DHT22;8524;57.650;11.926;2022-10-16T13:49:13;13.40;99.90
16814;DHT22;8524;57.650;11.926;2022-10-16T13:51:41;13.30;99.90
16814;DHT22;8524;57.650;11.926;2022-10-16T13:54:09;13.30;99.90
16814;DHT22;8524;57.650;11.926;2022-10-16T13:56:39;13.20;99.90
16814;DHT22;8524;57.650;11.926;2022-10-16T13:59:22;13.30;99.90
16814;DHT22;8524;57.650;11.926;2022-10-16T14:01:52;13.40;99.90
16814;DHT22;8524;57.650;11.926;2022-10-16T14:04:20;13.50;99.90
16814;DHT22;8524;57.650;11.926;2022-10-16T14:06:50;13.50;99.90
16814;DHT22;8524;57.650;11.926;2022-10-16T14:09:22;13.50;99.90
16814;DHT22;8524;57.650;11.926;2022-10-16T14:11:54;13.50;99.90
16814;DHT22;8524;57.650;11.926;2022-10-16T14:14:23;13.50;99.90
16814;DHT22;8524;57.650;11.926;2022-10-16T14:16:51;13.40;99.90
16814;DHT22;8524;57.650;11.926;2022-10-16T14:19:21;13.30;99.90
16814;DHT22;8524;57.650;11.926;2022-10-16T14:21:49;13.30;99.90
16814;DHT22;8524;57.650;11.926;2022-10-16T14:24:26;13.20;99.90
16814;DHT22;8524;57.650;11.926;2022-10-16T14:26:54;13.20;99.90
16814;DHT22;8524;57.650;11.926;2022-10-16T14:29:24;13.20;99.90
16814;DHT22;8524;57.650;11.926;2022-10-16T14:31:56;13.30;99.90
16814;DHT22;8524;57.650;11.926;2022-10-16T14:34:29;13.30;99.90
16814;DHT22;8524;57.650;11.926;2022-10-16T14:36:59;13.50;99.90
16814;DHT22;8524;57.650;11.926;2022-10-16T14:39:28;13.50;99.90
16814;DHT22;8524;57.650;11.926;2022-10-16T14:41:56;13.50;99.90
16814;DHT22;8524;57.650;11.926;2022-10-16T14:44:29;13.50;99.90
16814;DHT22;8524;57.650;11.926;2022-10-16T14:46:57;13.50;99.90
16814;DHT22;8524;57.650;11.926;2022-10-16T14:49:25;13.50;99.90
16814;DHT22;8524;57.650;11.926;2022-10-16T14:51:53;13.50;99.90
16814;DHT22;8524;57.650;11.926;2022-10-16T14:54:20;13.40;99.90
16814;DHT22;8524;57.650;11.926;2022-10-16T14:56:50;13.40;99.90
16814;DHT22;8524;57.650;11.926;2022-10-16T14:59:27;13.40;99.90
16814;DHT22;8524;57.650;11.926;2022-10-16T15:01:56;13.40;99.90
16814;DHT22;8524;57.650;11.926;2022-10-16T15:04:23;13.40;99.90
16814;DHT22;8524;57.650;11.926;2022-10-16T15:06:50;13.40;99.90
16814;DHT22;8524;57.650;11.926;2022-10-16T15:09:17;13.40;99.90
16814;DHT22;8524;57.650;11.926;2022-10-16T15:11:44;13.40;99.90
16814;DHT22;8524;57.650;11.926;2022-10-16T15:14:12;13.40;99.90
16814;DHT22;8524;57.650;11.926;2022-10-16T15:16:39;13.40;99.90
16814;DHT22;8524;57.650;11.926;2022-10-16T15:19:07;13.40;99.90
16814;DHT22;8524;57.650;11.926;2022-10-16T15:21:34;13.30;99.90
16814;DHT22;8524;57.650;11.926;2022-10-16T15:24:01;13.30;99.90
16814;DHT22;8524;57.650;11.926;2022-10-16T15:26:29;13.20;99.90
16814;DHT22;8524;57.650;11.926;2022-10-16T15:28:56;13.30;99.90
16814;DHT22;8524;57.650;11.926;2022-10-16T15:31:23;13.20;99.90
16814;DHT22;8524;57.650;11.926;2022-10-16T15:33:50;13.10;99.90
16814;DHT22;8524;57.650;11.926;2022-10-16T15:36:26;13.00;99.90
16814;DHT22;8524;57.650;11.926;2022-10-16T15:38:54;12.80;99.90
16814;DHT22;8524;57.650;11.926;2022-10-16T15:41:21;12.60;99.90
16814;DHT22;8524;57.650;11.926;2022-10-16T15:43:49;12.50;99.90
16814;DHT22;8524;57.650;11.926;2022-10-16T15:46:18;12.50;99.90
16814;DHT22;8524;57.650;11.926;2022-10-16T15:48:46;12.30;99.90
16814;DHT22;8524;57.650;11.926;2022-10-16T15:51:13;12.40;99.90
16814;DHT22;8524;57.650;11.926;2022-10-16T15:53:41;12.30;99.90
16814;DHT22;8524;57.650;11.926;2022-10-16T15:56:10;12.30;99.90
16814;DHT22;8524;57.650;11.926;2022-10-16T15:58:37;12.40;99.90